sensor_id;sensor_type;location;lat;lon;timestamp;temperature;humidity
64111;DHT22;50401;48.188;11.566;2022-07-21T00:02:19;25.17;63.63
64111;DHT22;50401;48.188;11.566;2022-07-21T00:04:44;25.15;64.27
64111;DHT22;50401;48.188;11.566;2022-07-21T00:07:09;24.96;64.27
64111;DHT22;50401;48.188;11.566;2022-07-21T00:09:35;24.78;64.04
64111;DHT22;50401;48.188;11.566;2022-07-21T00:12:02;24.17;65.98
64111;DHT22;50401;48.188;11.566;2022-07-21T00:14:27;24.02;66.27
64111;DHT22;50401;48.188;11.566;2022-07-21T00:16:53;24.04;66.84
64111;DHT22;50401;48.188;11.566;2022-07-21T00:19:18;24.04;67.48
64111;DHT22;50401;48.188;11.566;2022-07-21T00:21:43;24.23;66.37
64111;DHT22;50401;48.188;11.566;2022-07-21T00:24:09;24.16;65.37
64111;DHT22;50401;48.188;11.566;2022-07-21T00:26:34;23.57;67.96
64111;DHT22;50401;48.188;11.566;2022-07-21T00:29:00;23.78;66.96
64111;DHT22;50401;48.188;11.566;2022-07-21T00:31:25;23.65;67.90
64111;DHT22;50401;48.188;11.566;2022-07-21T00:33:51;23.38;68.52
64111;DHT22;50401;48.188;11.566;2022-07-21T00:36:17;23.32;69.18
64111;DHT22;50401;48.188;11.566;2022-07-21T00:38:43;23.29;69.68
64111;DHT22;50401;48.188;11.566;2022-07-21T00:41:08;23.39;69.71
64111;DHT22;50401;48.188;11.566;2022-07-21T00:43:34;23.60;70.70
64111;DHT22;50401;48.188;11.566;2022-07-21T00:45:59;23.79;69.76
64111;DHT22;50401;48.188;11.566;2022-07-21T00:48:25;24.01;68.66
64111;DHT22;50401;48.188;11.566;2022-07-21T00:50:50;24.16;67.89
64111;DHT22;50401;48.188;11.566;2022-07-21T00:53:19;24.13;67.60
64111;DHT22;50401;48.188;11.566;2022-07-21T00:55:45;23.99;68.58
64111;DHT22;50401;48.188;11.566;2022-07-21T00:58:12;24.13;68.38
64111;DHT22;50401;48.188;11.566;2022-07-21T01:00:37;24.26;68.35
64111;DHT22;50401;48.188;11.566;2022-07-21T01:03:03;24.27;68.09
64111;DHT22;50401;48.188;11.566;2022-07-21T01:05:28;24.40;67.31
64111;DHT22;50401;48.188;11.566;2022-07-21T01:07:55;24.51;67.07
64111;DHT22;50401;48.188;11.566;2022-07-21T01:10:22;24.63;65.83
64111;DHT22;50401;48.188;11.566;2022-07-21T01:12:48;24.71;65.94
64111;DHT22;50401;48.188;11.566;2022-07-21T01:15:15;24.71;65.99
64111;DHT22;50401;48.188;11.566;2022-07-21T01:17:41;24.81;65.57
64111;DHT22;50401;48.188;11.566;2022-07-21T01:20:10;24.79;65.51
64111;DHT22;50401;48.188;11.566;2022-07-21T01:22:38;24.74;65.73
64111;DHT22;50401;48.188;11.566;2022-07-21T01:25:04;24.74;64.99
64111;DHT22;50401;48.188;11.566;2022-07-21T01:27:30;24.61;65.54
64111;DHT22;50401;48.188;11.566;2022-07-21T01:29:56;24.60;65.31
64111;DHT22;50401;48.188;11.566;2022-07-21T01:32:22;24.65;65.13
64111;DHT22;50401;48.188;11.566;2022-07-21T01:34:48;24.72;65.18
64111;DHT22;50401;48.188;11.566;2022-07-21T01:39:43;24.79;65.77
64111;DHT22;50401;48.188;11.566;2022-07-21T01:42:28;24.78;64.93
64111;DHT22;50401;48.188;11.566;2022-07-21T01:44:53;24.78;64.60
64111;DHT22;50401;48.188;11.566;2022-07-21T01:47:18;24.81;64.22
64111;DHT22;50401;48.188;11.566;2022-07-21T01:49:45;24.84;63.58
64111;DHT22;50401;48.188;11.566;2022-07-21T01:52:10;24.85;63.65
64111;DHT22;50401;48.188;11.566;2022-07-21T01:54:36;24.85;63.75
64111;DHT22;50401;48.188;11.566;2022-07-21T01:57:01;24.86;63.25
64111;DHT22;50401;48.188;11.566;2022-07-21T01:59:27;24.76;63.58
64111;DHT22;50401;48.188;11.566;2022-07-21T02:01:52;24.78;63.69
64111;DHT22;50401;48.188;11.566;2022-07-21T02:04:18;24.81;63.82
64111;DHT22;50401;48.188;11.566;2022-07-21T02:06:44;24.82;63.89
64111;DHT22;50401;48.188;11.566;2022-07-21T02:09:09;24.88;63.59
64111;DHT22;50401;48.188;11.566;2022-07-21T02:11:35;24.88;63.63
64111;DHT22;50401;48.188;11.566;2022-07-21T02:14:01;24.85;63.66
64111;DHT22;50401;48.188;11.566;2022-07-21T02:16:26;24.88;63.61
64111;DHT22;50401;48.188;11.566;2022-07-21T02:18:51;24.91;63.58
64111;DHT22;50401;48.188;11.566;2022-07-21T02:21:17;24.93;63.50
64111;DHT22;50401;48.188;11.566;2022-07-21T02:23:42;24.95;63.39
64111;DHT22;50401;48.188;11.566;2022-07-21T02:26:08;24.88;63.63
64111;DHT22;50401;48.188;11.566;2022-07-21T02:28:33;24.88;63.98
64111;DHT22;50401;48.188;11.566;2022-07-21T02:30:59;24.82;63.79
64111;DHT22;50401;48.188;11.566;2022-07-21T02:33:24;24.88;63.68
64111;DHT22;50401;48.188;11.566;2022-07-21T02:35:50;24.82;64.07
64111;DHT22;50401;48.188;11.566;2022-07-21T02:38:15;24.84;64.19
64111;DHT22;50401;48.188;11.566;2022-07-21T02:40:41;24.81;64.59
64111;DHT22;50401;48.188;11.566;2022-07-21T02:43:07;24.84;64.74
64111;DHT22;50401;48.188;11.566;2022-07-21T02:45:33;24.76;65.04
64111;DHT22;50401;48.188;11.566;2022-07-21T02:48:05;24.84;65.39
64111;DHT22;50401;48.188;11.566;2022-07-21T02:50:33;24.71;66.05
64111;DHT22;50401;48.188;11.566;2022-07-21T02:53:07;24.68;66.59
64111;DHT22;50401;48.188;11.566;2022-07-21T02:55:33;24.58;67.06
64111;DHT22;50401;48.188;11.566;2022-07-21T02:58:16;24.54;67.42
64111;DHT22;50401;48.188;11.566;2022-07-21T03:00:49;24.49;67.43
64111;DHT22;50401;48.188;11.566;2022-07-21T03:03:15;24.40;67.40
64111;DHT22;50401;48.188;11.566;2022-07-21T03:05:41;24.36;67.47
64111;DHT22;50401;48.188;11.566;2022-07-21T03:08:08;24.26;67.90
64111;DHT22;50401;48.188;11.566;2022-07-21T03:10:34;24.23;68.00
64111;DHT22;50401;48.188;11.566;2022-07-21T03:13:00;24.16;68.78
64111;DHT22;50401;48.188;11.566;2022-07-21T03:15:26;23.95;69.46
64111;DHT22;50401;48.188;11.566;2022-07-21T03:17:52;23.85;70.04
64111;DHT22;50401;48.188;11.566;2022-07-21T03:20:18;23.68;71.11
64111;DHT22;50401;48.188;11.566;2022-07-21T03:22:46;23.64;71.30
64111;DHT22;50401;48.188;11.566;2022-07-21T03:25:12;23.67;71.34
64111;DHT22;50401;48.188;11.566;2022-07-21T03:27:37;23.78;71.02
64111;DHT22;50401;48.188;11.566;2022-07-21T03:30:07;23.86;70.45
64111;DHT22;50401;48.188;11.566;2022-07-21T03:32:34;23.94;70.19
64111;DHT22;50401;48.188;11.566;2022-07-21T03:34:59;23.95;70.21
64111;DHT22;50401;48.188;11.566;2022-07-21T03:37:25;24.05;69.78
64111;DHT22;50401;48.188;11.566;2022-07-21T03:39:51;23.84;70.48
64111;DHT22;50401;48.188;11.566;2022-07-21T03:42:16;23.85;70.40
64111;DHT22;50401;48.188;11.566;2022-07-21T03:44:42;23.82;70.35
64111;DHT22;50401;48.188;11.566;2022-07-21T03:47:07;23.97;69.84
64111;DHT22;50401;48.188;11.566;2022-07-21T03:49:33;24.13;69.53
64111;DHT22;50401;48.188;11.566;2022-07-21T03:51:58;24.17;69.08
64111;DHT22;50401;48.188;11.566;2022-07-21T03:54:23;24.23;68.73
64111;DHT22;50401;48.188;11.566;2022-07-21T03:56:49;24.22;68.56
64111;DHT22;50401;48.188;11.566;2022-07-21T03:59:14;24.20;68.87
64111;DHT22;50401;48.188;11.566;2022-07-21T04:01:40;24.19;69.21
64111;DHT22;50401;48.188;11.566;2022-07-21T04:04:05;24.04;69.73
64111;DHT22;50401;48.188;11.566;2022-07-21T04:06:30;23.94;70.11
64111;DHT22;50401;48.188;11.566;2022-07-21T04:08:56;23.91;70.27
64111;DHT22;50401;48.188;11.566;2022-07-21T04:11:21;23.77;70.88
64111;DHT22;50401;48.188;11.566;2022-07-21T04:13:46;23.81;70.88
64111;DHT22;50401;48.188;11.566;2022-07-21T04:16:12;23.82;70.69
64111;DHT22;50401;48.188;11.566;2022-07-21T04:18:37;23.91;70.50
64111;DHT22;50401;48.188;11.566;2022-07-21T04:21:03;23.99;70.29
64111;DHT22;50401;48.188;11.566;2022-07-21T04:23:28;23.94;70.42
64111;DHT22;50401;48.188;11.566;2022-07-21T04:25:54;23.95;70.32
64111;DHT22;50401;48.188;11.566;2022-07-21T04:28:20;23.95;70.23
64111;DHT22;50401;48.188;11.566;2022-07-21T04:30:45;23.92;70.25
64111;DHT22;50401;48.188;11.566;2022-07-21T04:33:10;23.88;70.00
64111;DHT22;50401;48.188;11.566;2022-07-21T04:35:36;23.92;69.70
64111;DHT22;50401;48.188;11.566;2022-07-21T04:38:01;23.91;69.50
64111;DHT22;50401;48.188;11.566;2022-07-21T04:40:27;23.91;69.61
64111;DHT22;50401;48.188;11.566;2022-07-21T04:42:52;23.94;69.55
64111;DHT22;50401;48.188;11.566;2022-07-21T04:45:18;23.94;69.44
64111;DHT22;50401;48.188;11.566;2022-07-21T04:47:49;23.86;69.73
64111;DHT22;50401;48.188;11.566;2022-07-21T04:50:17;23.78;69.96
64111;DHT22;50401;48.188;11.566;2022-07-21T04:52:43;23.81;69.76
64111;DHT22;50401;48.188;11.566;2022-07-21T04:55:09;23.82;69.64
64111;DHT22;50401;48.188;11.566;2022-07-21T04:57:40;23.84;69.78
64111;DHT22;50401;48.188;11.566;2022-07-21T05:00:08;23.79;69.67
64111;DHT22;50401;48.188;11.566;2022-07-21T05:02:34;23.81;69.50
64111;DHT22;50401;48.188;11.566;2022-07-21T05:04:59;23.84;69.68
64111;DHT22;50401;48.188;11.566;2022-07-21T05:07:26;23.88;69.67
64111;DHT22;50401;48.188;11.566;2022-07-21T05:09:52;23.94;69.66
64111;DHT22;50401;48.188;11.566;2022-07-21T05:12:17;23.98;69.35
64111;DHT22;50401;48.188;11.566;2022-07-21T05:14:43;24.01;69.23
64111;DHT22;50401;48.188;11.566;2022-07-21T05:17:08;24.01;69.24
64111;DHT22;50401;48.188;11.566;2022-07-21T05:19:33;24.01;69.20
64111;DHT22;50401;48.188;11.566;2022-07-21T05:21:59;23.95;69.59
64111;DHT22;50401;48.188;11.566;2022-07-21T05:24:24;23.91;69.71
64111;DHT22;50401;48.188;11.566;2022-07-21T05:26:49;23.94;69.57
64111;DHT22;50401;48.188;11.566;2022-07-21T05:29:15;24.02;69.38
64111;DHT22;50401;48.188;11.566;2022-07-21T05:31:40;24.02;69.43
64111;DHT22;50401;48.188;11.566;2022-07-21T05:34:06;24.05;69.51
64111;DHT22;50401;48.188;11.566;2022-07-21T05:36:31;24.08;69.46
64111;DHT22;50401;48.188;11.566;2022-07-21T05:38:57;24.09;69.47
64111;DHT22;50401;48.188;11.566;2022-07-21T05:41:22;24.15;69.29
64111;DHT22;50401;48.188;11.566;2022-07-21T05:43:48;24.24;69.11
64111;DHT22;50401;48.188;11.566;2022-07-21T05:46:14;24.37;68.62
64111;DHT22;50401;48.188;11.566;2022-07-21T05:48:39;24.46;68.42
64111;DHT22;50401;48.188;11.566;2022-07-21T05:51:05;25.02;66.39
64111;DHT22;50401;48.188;11.566;2022-07-21T05:53:31;24.96;66.58
64111;DHT22;50401;48.188;11.566;2022-07-21T05:55:56;25.20;66.04
64111;DHT22;50401;48.188;11.566;2022-07-21T05:58:22;26.03;63.55
64111;DHT22;50401;48.188;11.566;2022-07-21T06:00:50;26.49;62.23
64111;DHT22;50401;48.188;11.566;2022-07-21T06:03:34;26.12;63.03
64111;DHT22;50401;48.188;11.566;2022-07-21T06:06:00;25.75;64.07
64111;DHT22;50401;48.188;11.566;2022-07-21T06:08:25;25.48;64.76
64111;DHT22;50401;48.188;11.566;2022-07-21T06:10:50;25.30;65.44
64111;DHT22;50401;48.188;11.566;2022-07-21T06:13:16;25.17;65.82
64111;DHT22;50401;48.188;11.566;2022-07-21T06:15:41;25.10;66.08
64111;DHT22;50401;48.188;11.566;2022-07-21T06:18:07;25.05;66.30
64111;DHT22;50401;48.188;11.566;2022-07-21T06:20:32;25.09;66.29
64111;DHT22;50401;48.188;11.566;2022-07-21T06:22:58;25.13;66.21
64111;DHT22;50401;48.188;11.566;2022-07-21T06:25:23;25.00;66.65
64111;DHT22;50401;48.188;11.566;2022-07-21T06:27:49;25.05;66.73
64111;DHT22;50401;48.188;11.566;2022-07-21T06:30:14;24.98;67.19
64111;DHT22;50401;48.188;11.566;2022-07-21T06:32:39;24.92;67.31
64111;DHT22;50401;48.188;11.566;2022-07-21T06:35:06;24.86;67.43
64111;DHT22;50401;48.188;11.566;2022-07-21T06:37:31;24.79;67.97
64111;DHT22;50401;48.188;11.566;2022-07-21T06:39:57;24.64;68.29
64111;DHT22;50401;48.188;11.566;2022-07-21T06:42:23;24.50;68.67
64111;DHT22;50401;48.188;11.566;2022-07-21T06:44:48;24.41;68.83
64111;DHT22;50401;48.188;11.566;2022-07-21T06:47:14;24.26;69.48
64111;DHT22;50401;48.188;11.566;2022-07-21T06:49:39;24.19;69.94
64111;DHT22;50401;48.188;11.566;2022-07-21T06:52:05;24.13;70.33
64111;DHT22;50401;48.188;11.566;2022-07-21T06:54:30;24.06;70.71
64111;DHT22;50401;48.188;11.566;2022-07-21T06:56:55;24.06;70.97
64111;DHT22;50401;48.188;11.566;2022-07-21T06:59:21;23.99;71.49
64111;DHT22;50401;48.188;11.566;2022-07-21T07:01:46;24.13;70.95
64111;DHT22;50401;48.188;11.566;2022-07-21T07:04:11;24.33;70.40
64111;DHT22;50401;48.188;11.566;2022-07-21T07:06:37;24.53;69.89
64111;DHT22;50401;48.188;11.566;2022-07-21T07:09:02;24.64;69.35
64111;DHT22;50401;48.188;11.566;2022-07-21T07:11:29;24.67;69.29
64111;DHT22;50401;48.188;11.566;2022-07-21T07:13:54;24.68;69.28
64111;DHT22;50401;48.188;11.566;2022-07-21T07:16:20;24.78;69.17
64111;DHT22;50401;48.188;11.566;2022-07-21T07:18:45;24.85;68.78
64111;DHT22;50401;48.188;11.566;2022-07-21T07:21:10;24.86;68.52
64111;DHT22;50401;48.188;11.566;2022-07-21T07:23:36;24.84;68.33
64111;DHT22;50401;48.188;11.566;2022-07-21T07:26:01;24.86;68.13
64111;DHT22;50401;48.188;11.566;2022-07-21T07:28:27;24.74;68.42
64111;DHT22;50401;48.188;11.566;2022-07-21T07:30:52;24.79;68.49
64111;DHT22;50401;48.188;11.566;2022-07-21T07:33:18;24.79;68.39
64111;DHT22;50401;48.188;11.566;2022-07-21T07:35:43;24.79;68.22
64111;DHT22;50401;48.188;11.566;2022-07-21T07:38:15;24.82;67.87
64111;DHT22;50401;48.188;11.566;2022-07-21T07:40:40;24.86;67.42
64111;DHT22;50401;48.188;11.566;2022-07-21T07:43:06;24.91;67.16
64111;DHT22;50401;48.188;11.566;2022-07-21T07:45:33;24.95;66.92
64111;DHT22;50401;48.188;11.566;2022-07-21T07:47:58;24.93;67.20
64111;DHT22;50401;48.188;11.566;2022-07-21T07:50:24;24.89;66.91
64111;DHT22;50401;48.188;11.566;2022-07-21T07:52:49;24.86;67.38
64111;DHT22;50401;48.188;11.566;2022-07-21T07:55:15;24.89;66.95
64111;DHT22;50401;48.188;11.566;2022-07-21T07:57:41;24.86;67.13
64111;DHT22;50401;48.188;11.566;2022-07-21T08:00:10;24.71;67.21
64111;DHT22;50401;48.188;11.566;2022-07-21T08:02:36;24.71;67.16
64111;DHT22;50401;48.188;11.566;2022-07-21T08:05:03;24.74;66.85
64111;DHT22;50401;48.188;11.566;2022-07-21T08:07:28;24.79;66.67
64111;DHT22;50401;48.188;11.566;2022-07-21T08:09:54;24.85;66.55
64111;DHT22;50401;48.188;11.566;2022-07-21T08:12:19;24.91;66.52
64111;DHT22;50401;48.188;11.566;2022-07-21T08:14:45;24.93;66.38
64111;DHT22;50401;48.188;11.566;2022-07-21T08:17:10;24.95;66.21
64111;DHT22;50401;48.188;11.566;2022-07-21T08:19:35;24.98;66.14
64111;DHT22;50401;48.188;11.566;2022-07-21T08:22:01;25.03;66.21
64111;DHT22;50401;48.188;11.566;2022-07-21T08:24:27;25.12;66.19
64111;DHT22;50401;48.188;11.566;2022-07-21T08:26:52;25.22;66.01
64111;DHT22;50401;48.188;11.566;2022-07-21T08:29:17;25.28;65.90
64111;DHT22;50401;48.188;11.566;2022-07-21T08:31:43;25.28;65.74
64111;DHT22;50401;48.188;11.566;2022-07-21T08:34:09;25.27;65.66
64111;DHT22;50401;48.188;11.566;2022-07-21T08:36:34;25.08;66.10
64111;DHT22;50401;48.188;11.566;2022-07-21T08:38:59;24.92;67.08
64111;DHT22;50401;48.188;11.566;2022-07-21T08:41:25;24.95;67.29
64111;DHT22;50401;48.188;11.566;2022-07-21T08:43:50;24.78;67.56
64111;DHT22;50401;48.188;11.566;2022-07-21T08:46:16;24.69;67.78
64111;DHT22;50401;48.188;11.566;2022-07-21T08:48:43;24.56;68.15
64111;DHT22;50401;48.188;11.566;2022-07-21T08:51:09;24.51;68.35
64111;DHT22;50401;48.188;11.566;2022-07-21T08:53:34;24.61;68.17
64111;DHT22;50401;48.188;11.566;2022-07-21T08:56:00;24.65;67.54
64111;DHT22;50401;48.188;11.566;2022-07-21T08:58:25;24.71;67.45
64111;DHT22;50401;48.188;11.566;2022-07-21T09:00:51;24.64;67.10
64111;DHT22;50401;48.188;11.566;2022-07-21T09:03:22;24.56;67.50
64111;DHT22;50401;48.188;11.566;2022-07-21T09:06:08;24.58;67.44
64111;DHT22;50401;48.188;11.566;2022-07-21T09:08:47;24.37;68.09
64111;DHT22;50401;48.188;11.566;2022-07-21T09:11:27;24.40;67.94
64111;DHT22;50401;48.188;11.566;2022-07-21T09:14:10;24.32;68.05
64111;DHT22;50401;48.188;11.566;2022-07-21T09:16:38;24.27;68.29
64111;DHT22;50401;48.188;11.566;2022-07-21T09:19:06;24.01;69.28
64111;DHT22;50401;48.188;11.566;2022-07-21T09:21:33;24.12;68.80
64111;DHT22;50401;48.188;11.566;2022-07-21T09:24:32;24.20;68.08
64111;DHT22;50401;48.188;11.566;2022-07-21T09:27:10;24.24;67.95
64111;DHT22;50401;48.188;11.566;2022-07-21T09:34:39;24.40;67.05
64111;DHT22;50401;48.188;11.566;2022-07-21T09:37:06;24.51;66.92
64111;DHT22;50401;48.188;11.566;2022-07-21T09:39:54;24.51;66.66
64111;DHT22;50401;48.188;11.566;2022-07-21T09:44:52;24.43;67.22
64111;DHT22;50401;48.188;11.566;2022-07-21T09:47:21;24.44;67.01
64111;DHT22;50401;48.188;11.566;2022-07-21T09:49:47;24.37;67.07
64111;DHT22;50401;48.188;11.566;2022-07-21T09:52:30;24.27;67.04
64111;DHT22;50401;48.188;11.566;2022-07-21T09:55:05;24.29;67.21
64111;DHT22;50401;48.188;11.566;2022-07-21T09:57:31;24.32;66.85
64111;DHT22;50401;48.188;11.566;2022-07-21T09:59:58;24.32;66.95
64111;DHT22;50401;48.188;11.566;2022-07-21T10:02:28;24.22;67.36
64111;DHT22;50401;48.188;11.566;2022-07-21T10:04:58;24.12;67.86
64111;DHT22;50401;48.188;11.566;2022-07-21T10:07:24;24.12;68.15
64111;DHT22;50401;48.188;11.566;2022-07-21T10:09:51;24.12;70.87
64111;DHT22;50401;48.188;11.566;2022-07-21T10:12:16;24.04;72.49
64111;DHT22;50401;48.188;11.566;2022-07-21T10:14:43;23.99;72.98
64111;DHT22;50401;48.188;11.566;2022-07-21T10:17:09;23.86;73.92
64111;DHT22;50401;48.188;11.566;2022-07-21T10:20:54;23.84;75.48
64111;DHT22;50401;48.188;11.566;2022-07-21T10:25:35;23.88;76.13
64111;DHT22;50401;48.188;11.566;2022-07-21T10:30:42;24.04;75.41
64111;DHT22;50401;48.188;11.566;2022-07-21T10:33:07;23.98;75.48
64111;DHT22;50401;48.188;11.566;2022-07-21T10:35:33;23.91;75.45
64111;DHT22;50401;48.188;11.566;2022-07-21T10:38:00;23.91;75.09
64111;DHT22;50401;48.188;11.566;2022-07-21T10:45:39;23.92;74.50
64111;DHT22;50401;48.188;11.566;2022-07-21T10:48:46;23.91;74.13
64111;DHT22;50401;48.188;11.566;2022-07-21T10:50:57;23.92;73.96
64111;DHT22;50401;48.188;11.566;2022-07-21T10:53:22;23.84;74.04
64111;DHT22;50401;48.188;11.566;2022-07-21T10:55:52;23.81;74.40
64111;DHT22;50401;48.188;11.566;2022-07-21T11:01:02;23.47;74.61
64111;DHT22;50401;48.188;11.566;2022-07-21T11:03:33;23.53;74.04
64111;DHT22;50401;48.188;11.566;2022-07-21T11:06:24;23.53;75.65
64111;DHT22;50401;48.188;11.566;2022-07-21T11:11:29;23.86;74.41
64111;DHT22;50401;48.188;11.566;2022-07-21T11:14:15;23.95;73.52
64111;DHT22;50401;48.188;11.566;2022-07-21T11:19:43;23.92;73.62
64111;DHT22;50401;48.188;11.566;2022-07-21T11:25:26;23.92;73.43
64111;DHT22;50401;48.188;11.566;2022-07-21T11:27:44;23.99;72.74
64111;DHT22;50401;48.188;11.566;2022-07-21T11:30:10;23.99;72.55
64111;DHT22;50401;48.188;11.566;2022-07-21T11:32:35;23.97;72.15
64111;DHT22;50401;48.188;11.566;2022-07-21T11:35:04;23.99;72.65
64111;DHT22;50401;48.188;11.566;2022-07-21T11:39:58;23.77;73.45
64111;DHT22;50401;48.188;11.566;2022-07-21T11:42:25;23.89;72.84
64111;DHT22;50401;48.188;11.566;2022-07-21T11:44:51;23.98;72.51
64111;DHT22;50401;48.188;11.566;2022-07-21T11:47:17;24.04;72.32
64111;DHT22;50401;48.188;11.566;2022-07-21T11:49:43;24.16;72.13
64111;DHT22;50401;48.188;11.566;2022-07-21T11:52:14;24.19;71.66
64111;DHT22;50401;48.188;11.566;2022-07-21T11:54:44;24.19;71.35
64111;DHT22;50401;48.188;11.566;2022-07-21T11:57:11;24.20;71.48
64111;DHT22;50401;48.188;11.566;2022-07-21T11:59:37;24.27;71.38
64111;DHT22;50401;48.188;11.566;2022-07-21T12:02:10;24.30;71.49
64111;DHT22;50401;48.188;11.566;2022-07-21T12:04:50;24.40;70.82
64111;DHT22;50401;48.188;11.566;2022-07-21T12:09:49;24.39;71.05
64111;DHT22;50401;48.188;11.566;2022-07-21T12:12:15;24.33;71.11
64111;DHT22;50401;48.188;11.566;2022-07-21T12:14:51;24.34;71.10
64111;DHT22;50401;48.188;11.566;2022-07-21T12:17:32;24.47;70.24
64111;DHT22;50401;48.188;11.566;2022-07-21T12:19:58;24.47;70.71
64111;DHT22;50401;48.188;11.566;2022-07-21T12:22:43;24.53;70.33
64111;DHT22;50401;48.188;11.566;2022-07-21T12:25:12;24.36;70.62
64111;DHT22;50401;48.188;11.566;2022-07-21T12:27:40;24.36;70.73
64111;DHT22;50401;48.188;11.566;2022-07-21T12:30:08;23.77;71.73
64111;DHT22;50401;48.188;11.566;2022-07-21T12:32:48;24.08;71.41
64111;DHT22;50401;48.188;11.566;2022-07-21T12:35:25;24.26;70.82
64111;DHT22;50401;48.188;11.566;2022-07-21T12:40:49;24.57;67.66
64111;DHT22;50401;48.188;11.566;2022-07-21T12:43:20;24.60;67.92
64111;DHT22;50401;48.188;11.566;2022-07-21T12:48:33;24.63;68.51
64111;DHT22;50401;48.188;11.566;2022-07-21T12:53:41;24.88;67.11
64111;DHT22;50401;48.188;11.566;2022-07-21T12:56:07;24.95;66.03
64111;DHT22;50401;48.188;11.566;2022-07-21T12:58:33;25.03;65.78
64111;DHT22;50401;48.188;11.566;2022-07-21T13:00:59;24.84;65.95
64111;DHT22;50401;48.188;11.566;2022-07-21T13:03:27;24.56;66.19
64111;DHT22;50401;48.188;11.566;2022-07-21T13:05:52;24.69;66.44
64111;DHT22;50401;48.188;11.566;2022-07-21T13:08:18;24.71;65.62
64111;DHT22;50401;48.188;11.566;2022-07-21T13:10:44;24.78;65.42
64111;DHT22;50401;48.188;11.566;2022-07-21T13:13:09;24.85;65.57
64111;DHT22;50401;48.188;11.566;2022-07-21T13:15:35;24.85;65.60
64111;DHT22;50401;48.188;11.566;2022-07-21T13:18:00;24.68;65.57
64111;DHT22;50401;48.188;11.566;2022-07-21T13:20:26;24.30;66.43
64111;DHT22;50401;48.188;11.566;2022-07-21T13:22:51;24.44;66.48
64111;DHT22;50401;48.188;11.566;2022-07-21T13:25:16;24.51;65.77
64111;DHT22;50401;48.188;11.566;2022-07-21T13:27:42;24.69;65.13
64111;DHT22;50401;48.188;11.566;2022-07-21T13:30:08;24.58;64.90
64111;DHT22;50401;48.188;11.566;2022-07-21T13:32:35;24.53;64.91
64111;DHT22;50401;48.188;11.566;2022-07-21T13:35:00;24.37;65.74
64111;DHT22;50401;48.188;11.566;2022-07-21T13:37:26;24.54;65.50
64111;DHT22;50401;48.188;11.566;2022-07-21T13:39:52;24.63;65.13
64111;DHT22;50401;48.188;11.566;2022-07-21T13:42:17;24.68;65.20
64111;DHT22;50401;48.188;11.566;2022-07-21T13:44:43;24.67;65.19
64111;DHT22;50401;48.188;11.566;2022-07-21T13:47:08;24.78;64.75
64111;DHT22;50401;48.188;11.566;2022-07-21T13:49:34;24.89;64.52
64111;DHT22;50401;48.188;11.566;2022-07-21T13:51:59;24.95;64.53
64111;DHT22;50401;48.188;11.566;2022-07-21T13:54:25;24.85;64.69
64111;DHT22;50401;48.188;11.566;2022-07-21T13:56:50;24.99;64.69
64111;DHT22;50401;48.188;11.566;2022-07-21T13:59:16;24.99;64.06
64111;DHT22;50401;48.188;11.566;2022-07-21T14:01:41;24.85;64.18
64111;DHT22;50401;48.188;11.566;2022-07-21T14:04:07;24.98;63.90
64111;DHT22;50401;48.188;11.566;2022-07-21T14:06:33;24.98;62.92
64111;DHT22;50401;48.188;11.566;2022-07-21T14:08:58;25.00;63.03
64111;DHT22;50401;48.188;11.566;2022-07-21T14:11:24;25.13;62.77
64111;DHT22;50401;48.188;11.566;2022-07-21T14:13:52;25.15;62.57
64111;DHT22;50401;48.188;11.566;2022-07-21T14:16:18;25.27;61.41
64111;DHT22;50401;48.188;11.566;2022-07-21T14:18:43;25.37;61.24
64111;DHT22;50401;48.188;11.566;2022-07-21T14:21:09;25.48;60.72
64111;DHT22;50401;48.188;11.566;2022-07-21T14:23:36;25.58;60.52
64111;DHT22;50401;48.188;11.566;2022-07-21T14:26:01;25.65;60.12
64111;DHT22;50401;48.188;11.566;2022-07-21T14:28:27;25.51;60.16
64111;DHT22;50401;48.188;11.566;2022-07-21T14:30:52;25.55;60.45
64111;DHT22;50401;48.188;11.566;2022-07-21T14:33:18;25.60;59.97
64111;DHT22;50401;48.188;11.566;2022-07-21T14:35:46;25.68;59.00
64111;DHT22;50401;48.188;11.566;2022-07-21T14:38:12;25.71;59.08
64111;DHT22;50401;48.188;11.566;2022-07-21T14:40:37;25.68;59.05
64111;DHT22;50401;48.188;11.566;2022-07-21T14:43:04;25.62;58.90
64111;DHT22;50401;48.188;11.566;2022-07-21T14:45:29;24.91;60.08
64111;DHT22;50401;48.188;11.566;2022-07-21T14:47:56;25.08;60.10
64111;DHT22;50401;48.188;11.566;2022-07-21T14:50:24;25.20;59.65
64111;DHT22;50401;48.188;11.566;2022-07-21T14:52:50;24.78;61.44
64111;DHT22;50401;48.188;11.566;2022-07-21T14:55:16;25.00;61.02
64111;DHT22;50401;48.188;11.566;2022-07-21T14:57:42;25.10;60.46
64111;DHT22;50401;48.188;11.566;2022-07-21T15:00:08;24.79;60.76
64111;DHT22;50401;48.188;11.566;2022-07-21T15:02:34;24.95;59.35
64111;DHT22;50401;48.188;11.566;2022-07-21T15:05:00;24.58;59.49
64111;DHT22;50401;48.188;11.566;2022-07-21T15:07:26;24.58;59.02
64111;DHT22;50401;48.188;11.566;2022-07-21T15:09:51;24.63;59.10
64111;DHT22;50401;48.188;11.566;2022-07-21T15:12:17;24.67;60.06
64111;DHT22;50401;48.188;11.566;2022-07-21T15:14:42;24.75;60.37
64111;DHT22;50401;48.188;11.566;2022-07-21T15:17:08;25.00;60.36
64111;DHT22;50401;48.188;11.566;2022-07-21T15:19:33;25.23;60.61
64111;DHT22;50401;48.188;11.566;2022-07-21T15:21:59;25.15;61.11
64111;DHT22;50401;48.188;11.566;2022-07-21T15:24:24;25.13;61.32
64111;DHT22;50401;48.188;11.566;2022-07-21T15:26:50;24.43;62.88
64111;DHT22;50401;48.188;11.566;2022-07-21T15:29:15;24.61;62.39
64111;DHT22;50401;48.188;11.566;2022-07-21T15:31:41;24.96;61.65
64111;DHT22;50401;48.188;11.566;2022-07-21T15:34:07;25.06;60.80
64111;DHT22;50401;48.188;11.566;2022-07-21T15:36:33;25.06;60.24
64111;DHT22;50401;48.188;11.566;2022-07-21T15:38:58;24.76;60.13
64111;DHT22;50401;48.188;11.566;2022-07-21T15:41:25;24.75;61.05
64111;DHT22;50401;48.188;11.566;2022-07-21T15:43:51;24.92;61.22
64111;DHT22;50401;48.188;11.566;2022-07-21T15:46:16;25.16;60.82
64111;DHT22;50401;48.188;11.566;2022-07-21T15:48:42;25.05;61.23
64111;DHT22;50401;48.188;11.566;2022-07-21T15:51:07;25.06;61.49
64111;DHT22;50401;48.188;11.566;2022-07-21T15:53:33;25.12;61.39
64111;DHT22;50401;48.188;11.566;2022-07-21T15:55:59;25.24;60.92
64111;DHT22;50401;48.188;11.566;2022-07-21T15:58:25;25.34;60.16
64111;DHT22;50401;48.188;11.566;2022-07-21T16:00:50;25.38;59.97